HS Bizet — A8MI3 — position and weather

sailwx.info

Track history (hours):
 
Tides and Currents Weather Stations Pressure Air Temp Water Temp Dewpoint Dewpoint Depression Visibility Wind Speed Wind Dir Waves Ship Positions

HS Bizet

Last reported at 2016-Apr-25 13:06 UTC. Time now 2016-Apr-30 03:19 UTC.
Position S 34°55' E 151°01'.

Length 246 m; draft 8.6 m.

Type: Ship (hazmat cat A). MMSI: 636091349.

Date/timePositionNaut miles runAvg speedWind from/ knotsBaromVisibWave heightAir tempDewpointWater temp
2016-Apr-25 13:06S 34°55' E 151°01'711.7
2016-Apr-25 12:28S 35°02' E 150°59'1111.5
2016-Apr-25 11:33S 35°13' E 150°55'1211.6
2016-Apr-25 10:33S 35°24' E 150°52'1211.5
2016-Apr-25 09:33S 35°35' E 150°48'1311.6
2016-Apr-25 08:26S 35°48' E 150°44'9411.6
2016-Apr-25 00:18S 37°19' E 150°14'912.1
2016-Apr-24 23:33S 37°28' E 150°11'1110.9
2016-Apr-24 22:33S 37°36' E 150°02'1111.5
2016-Apr-24 21:33S 37°44' E 149°51'1111.5
2016-Apr-24 20:33S 37°51' E 149°40'1211.5
2016-Apr-24 19:33S 37°58' E 149°29'1211.5
2016-Apr-24 18:31S 38°06' E 149°18'1111.4
2016-Apr-24 17:33S 38°13' E 149°07'2411.6
2016-Apr-24 15:32S 38°29' E 148°44'1511.5
2016-Apr-24 14:13S 38°38' E 148°29'811.8
2016-Apr-24 13:33S 38°43' E 148°22'1211.5
2016-Apr-24 12:33S 38°49' E 148°09'1111.5
2016-Apr-24 11:33S 38°53' E 147°55'1111.5
2016-Apr-24 10:33S 38°57' E 147°41'1211.4
2016-Apr-24 09:32S 39°01' E 147°27'1111.6
2016-Apr-24 08:33S 39°05' E 147°13'1211.6
2016-Apr-24 07:33S 39°09' E 146°60'1211.8
2016-Apr-24 06:33S 39°13' E 146°45'1211.7
2016-Apr-24 05:33S 39°17' E 146°31'1211.7
2016-Apr-24 04:33S 39°16' E 146°16'1111.5
2016-Apr-24 03:33S 39°11' E 146°03'1111.4
2016-Apr-24 02:33S 39°05' E 145°50'1311.4
2016-Apr-24 01:24S 38°58' E 145°36'1011.4
2016-Apr-24 00:31S 38°53' E 145°25'1211.4
2016-Apr-23 23:28S 38°46' E 145°12'1111.5
2016-Apr-23 22:33S 38°40' E 145°01'1311.5
2016-Apr-23 21:27S 38°33' E 144°48'66 1.9
2016-Apr-22 11:30S 39°09' E 145°59'1617.2
2016-Apr-22 10:33S 39°11' E 146°20'1717.4
2016-Apr-22 09:34S 39°06' E 146°41'1717.2
2016-Apr-22 08:33S 39°03' E 147°03'  
2016-Apr-18 06:24S 36°50' E 174°50'910.6
2016-Apr-18 05:33S 36°41' E 174°53'9 9.0
2016-Apr-18 04:33S 36°34' E 175°00'10 9.1
2016-Apr-18 03:29S 36°28' E 175°09'  
Track history (hours):
 
Tides and Currents Weather Stations Pressure Air Temp Water Temp Dewpoint Dewpoint Depression Visibility Wind Speed Wind Dir Waves Ship Positions

HS Bizet

Last reported at 2016-Apr-25 13:06 UTC. Time now 2016-Apr-30 03:19 UTC.
Position S 34°55' E 151°01'.

Length 246 m; draft 8.6 m.

Type: Ship (hazmat cat A). MMSI: 636091349.

Date/timePositionNaut miles runAvg speedWind from/ knotsBaromVisibWave heightAir tempDewpointWater temp
2016-Apr-25 13:06S 34°55' E 151°01'711.7
2016-Apr-25 12:28S 35°02' E 150°59'1111.5
2016-Apr-25 11:33S 35°13' E 150°55'1211.6
2016-Apr-25 10:33S 35°24' E 150°52'1211.5
2016-Apr-25 09:33S 35°35' E 150°48'1311.6
2016-Apr-25 08:26S 35°48' E 150°44'9411.6
2016-Apr-25 00:18S 37°19' E 150°14'912.1
2016-Apr-24 23:33S 37°28' E 150°11'1110.9
2016-Apr-24 22:33S 37°36' E 150°02'1111.5
2016-Apr-24 21:33S 37°44' E 149°51'1111.5
2016-Apr-24 20:33S 37°51' E 149°40'1211.5
2016-Apr-24 19:33S 37°58' E 149°29'1211.5
2016-Apr-24 18:31S 38°06' E 149°18'1111.4
2016-Apr-24 17:33S 38°13' E 149°07'2411.6
2016-Apr-24 15:32S 38°29' E 148°44'1511.5
2016-Apr-24 14:13S 38°38' E 148°29'811.8
2016-Apr-24 13:33S 38°43' E 148°22'1211.5
2016-Apr-24 12:33S 38°49' E 148°09'1111.5
2016-Apr-24 11:33S 38°53' E 147°55'1111.5
2016-Apr-24 10:33S 38°57' E 147°41'1211.4
2016-Apr-24 09:32S 39°01' E 147°27'1111.6
2016-Apr-24 08:33S 39°05' E 147°13'1211.6
2016-Apr-24 07:33S 39°09' E 146°60'1211.8
2016-Apr-24 06:33S 39°13' E 146°45'1211.7
2016-Apr-24 05:33S 39°17' E 146°31'1211.7
2016-Apr-24 04:33S 39°16' E 146°16'1111.5
2016-Apr-24 03:33S 39°11' E 146°03'1111.4
2016-Apr-24 02:33S 39°05' E 145°50'1311.4
2016-Apr-24 01:24S 38°58' E 145°36'1011.4
2016-Apr-24 00:31S 38°53' E 145°25'1211.4
2016-Apr-23 23:28S 38°46' E 145°12'1111.5
2016-Apr-23 22:33S 38°40' E 145°01'1311.5
2016-Apr-23 21:27S 38°33' E 144°48'66 1.9
2016-Apr-22 11:30S 39°09' E 145°59'1617.2
2016-Apr-22 10:33S 39°11' E 146°20'1717.4
2016-Apr-22 09:34S 39°06' E 146°41'1717.2
2016-Apr-22 08:33S 39°03' E 147°03'  
2016-Apr-18 06:24S 36°50' E 174°50'910.6
2016-Apr-18 05:33S 36°41' E 174°53'9 9.0
2016-Apr-18 04:33S 36°34' E 175°00'10 9.1
2016-Apr-18 03:29S 36°28' E 175°09'  

Dump ship's entire track history